createdAt,value
2023-01-08T00:00:19.141Z,4.60
2023-01-08T00:00:52.252Z,5.30
2023-01-08T00:01:24.516Z,5.22
2023-01-08T00:01:56.556Z,5.97
2023-01-08T00:02:29.355Z,5.03
2023-01-08T00:03:01.278Z,4.90
2023-01-08T00:03:33.407Z,5.35
2023-01-08T00:04:06.447Z,4.93
2023-01-08T00:04:38.630Z,5.93
2023-01-08T00:05:11.490Z,5.78
2023-01-08T00:05:44.320Z,5.93
2023-01-08T00:06:18.085Z,5.40
2023-01-08T00:06:50.939Z,5.57
2023-01-08T00:07:22.731Z,5.05
2023-01-08T00:07:54.547Z,5.43
2023-01-08T00:08:27.305Z,5.30
2023-01-08T00:08:59.239Z,5.20
2023-01-08T00:09:32.090Z,4.82
2023-01-08T00:10:04.439Z,4.75
2023-01-08T00:10:38.874Z,4.85
2023-01-08T00:11:12.539Z,5.75
2023-01-08T00:11:44.442Z,5.05
2023-01-08T00:12:16.296Z,5.03
2023-01-08T00:12:49.174Z,5.70
2023-01-08T00:13:21.155Z,4.82
2023-01-08T00:13:52.971Z,5.93
2023-01-08T00:14:25.814Z,5.53
2023-01-08T00:14:57.683Z,4.28
2023-01-08T00:15:30.144Z,5.40
2023-01-08T00:16:07.563Z,5.35
2023-01-08T00:16:39.390Z,6.45
2023-01-08T00:17:11.263Z,5.88
2023-01-08T00:17:44.032Z,4.78
2023-01-08T00:18:15.841Z,4.78
2023-01-08T00:18:48.085Z,4.90
2023-01-08T00:19:20.896Z,5.07
2023-01-08T00:19:52.768Z,4.85
2023-01-08T00:20:24.994Z,4.80
2023-01-08T00:20:57.743Z,7.47
2023-01-08T00:21:29.916Z,15.10
2023-01-08T00:22:01.772Z,14.05
2023-01-08T00:22:34.550Z,31.70
2023-01-08T00:23:06.327Z,26.92
2023-01-08T00:23:38.533Z,18.88
2023-01-08T00:24:11.404Z,14.68
2023-01-08T00:24:43.193Z,13.43
2023-01-08T00:25:15.583Z,11.95
2023-01-08T00:25:49.697Z,9.05
2023-01-08T00:26:21.810Z,6.43
2023-01-08T00:26:53.634Z,6.35
2023-01-08T00:27:26.414Z,5.18
2023-01-08T00:27:58.326Z,6.43
2023-01-08T00:28:31.583Z,4.35
2023-01-08T00:29:03.494Z,4.50
2023-01-08T00:29:37.326Z,4.95
2023-01-08T00:30:10.083Z,4.65
2023-01-08T00:30:42.233Z,5.35
2023-01-08T00:31:15.162Z,4.70
2023-01-08T00:31:47.016Z,5.32
2023-01-08T00:32:18.822Z,5.25
2023-01-08T00:32:51.597Z,5.05
2023-01-08T00:33:23.501Z,5.15
2023-01-08T00:33:55.363Z,5.15
2023-01-08T00:34:28.183Z,5.80
2023-01-08T00:35:01.412Z,5.22
2023-01-08T00:35:33.237Z,5.18
2023-01-08T00:36:09.014Z,4.88
2023-01-08T00:36:40.836Z,4.95
2023-01-08T00:37:12.665Z,5.00
2023-01-08T00:37:50.379Z,5.43
2023-01-08T00:38:25.865Z,5.55
2023-01-08T00:38:59.896Z,4.57
2023-01-08T00:39:32.746Z,4.35
2023-01-08T00:40:05.723Z,4.72
2023-01-08T00:40:38.495Z,5.43
2023-01-08T00:41:14.339Z,5.65
2023-01-08T00:41:46.252Z,5.07
2023-01-08T00:42:18.054Z,6.10
2023-01-08T00:42:50.791Z,5.68
2023-01-08T00:43:22.681Z,5.35
2023-01-08T00:43:54.536Z,5.30
2023-01-08T00:44:27.394Z,5.20
2023-01-08T00:44:59.262Z,5.82
2023-01-08T00:45:31.281Z,6.50
2023-01-08T00:46:04.664Z,7.28
2023-01-08T00:46:36.545Z,5.65
2023-01-08T00:47:08.367Z,5.68
2023-01-08T00:47:40.312Z,5.20
2023-01-08T00:48:13.124Z,5.47
2023-01-08T00:48:44.946Z,5.65
2023-01-08T00:49:16.777Z,4.95
2023-01-08T00:49:49.566Z,5.65
2023-01-08T00:50:21.412Z,5.57
2023-01-08T00:50:54.548Z,5.85
2023-01-08T00:51:27.478Z,6.18
2023-01-08T00:51:59.323Z,5.05
2023-01-08T00:52:31.258Z,6.30
2023-01-08T00:53:04.342Z,5.50
2023-01-08T00:53:37.833Z,5.68
2023-01-08T00:54:11.568Z,4.90
2023-01-08T00:54:43.413Z,4.05
2023-01-08T00:55:15.515Z,4.72
2023-01-08T00:55:48.693Z,5.45
2023-01-08T00:56:21.847Z,4.30
2023-01-08T00:56:56.214Z,4.85
2023-01-08T00:57:32.936Z,4.82
2023-01-08T00:58:04.735Z,4.70
2023-01-08T00:58:38.112Z,4.30
2023-01-08T00:59:09.969Z,4.00
2023-01-08T00:59:41.778Z,4.80
2023-01-08T01:00:16.704Z,4.25
2023-01-08T01:00:48.557Z,4.82
2023-01-08T01:01:20.558Z,4.65
2023-01-08T01:01:54.477Z,5.53
2023-01-08T01:02:27.647Z,4.57
2023-01-08T01:02:59.487Z,4.55
2023-01-08T01:03:32.278Z,5.40
2023-01-08T01:04:04.590Z,4.70
2023-01-08T01:04:36.631Z,4.57
2023-01-08T01:05:10.715Z,4.88
2023-01-08T01:05:42.587Z,4.22
2023-01-08T01:06:14.967Z,4.75
2023-01-08T01:06:47.787Z,4.35
2023-01-08T01:07:19.839Z,4.63
2023-01-08T01:07:51.648Z,4.70
2023-01-08T01:08:24.394Z,3.75
2023-01-08T01:08:57.092Z,5.05
2023-01-08T01:09:29.294Z,4.15
2023-01-08T01:10:02.209Z,4.22
2023-01-08T01:10:34.078Z,4.82
2023-01-08T01:11:13.867Z,5.25
2023-01-08T01:11:48.002Z,3.92
2023-01-08T01:12:19.853Z,3.55
2023-01-08T01:12:51.719Z,3.22
2023-01-08T01:13:24.565Z,3.90
2023-01-08T01:13:57.539Z,3.95
2023-01-08T01:14:29.370Z,3.95
2023-01-08T01:15:02.332Z,4.13
2023-01-08T01:15:34.226Z,3.35
2023-01-08T01:16:06.543Z,3.92
2023-01-08T01:16:40.142Z,3.40
2023-01-08T01:17:12.647Z,3.58
2023-01-08T01:17:46.076Z,3.40
2023-01-08T01:18:18.853Z,3.20
2023-01-08T01:18:52.376Z,4.20
2023-01-08T01:19:25.220Z,4.47
2023-01-08T01:19:57.074Z,4.15
2023-01-08T01:20:28.865Z,3.30
2023-01-08T01:21:01.771Z,3.70
2023-01-08T01:21:33.791Z,3.30
2023-01-08T01:22:05.791Z,3.15
2023-01-08T01:22:39.192Z,3.35
2023-01-08T01:23:10.993Z,4.13
2023-01-08T01:23:42.851Z,3.13
2023-01-08T01:24:15.779Z,3.00
2023-01-08T01:24:47.719Z,3.65
2023-01-08T01:25:19.833Z,3.33
2023-01-08T01:25:54.297Z,3.67
2023-01-08T01:26:27.103Z,3.90
2023-01-08T01:27:01.443Z,2.92
2023-01-08T01:27:33.293Z,3.55
2023-01-08T01:28:05.340Z,3.85
2023-01-08T01:28:38.166Z,3.45
2023-01-08T01:29:09.968Z,3.78
2023-01-08T01:29:41.786Z,3.70
2023-01-08T01:30:14.655Z,3.92
2023-01-08T01:30:52.977Z,3.80
2023-01-08T01:31:28.706Z,3.53
2023-01-08T01:32:00.747Z,3.50
2023-01-08T01:32:32.638Z,3.70
2023-01-08T01:33:05.519Z,3.75
2023-01-08T01:33:37.369Z,3.53
2023-01-08T01:34:09.598Z,3.55
2023-01-08T01:34:42.453Z,2.92
2023-01-08T01:35:14.365Z,2.70
2023-01-08T01:35:46.215Z,3.30
2023-01-08T01:36:20.705Z,3.60
2023-01-08T01:36:52.492Z,3.47
2023-01-08T01:37:24.363Z,3.90
2023-01-08T01:37:57.152Z,3.17
2023-01-08T01:38:29.407Z,3.17
2023-01-08T01:39:01.294Z,3.50
2023-01-08T01:39:34.153Z,3.50
2023-01-08T01:40:06.983Z,3.53
2023-01-08T01:40:41.776Z,3.47
2023-01-08T01:41:22.704Z,3.90
2023-01-08T01:41:54.502Z,3.63
2023-01-08T01:42:39.682Z,3.50
2023-01-08T01:43:14.822Z,3.58
2023-01-08T01:43:46.650Z,4.05
2023-01-08T01:44:40.922Z,3.65
2023-01-08T01:45:22.202Z,3.30
2023-01-08T01:45:54.108Z,3.95
2023-01-08T01:46:37.546Z,3.40
2023-01-08T01:47:20.915Z,3.47
2023-01-08T01:47:56.521Z,3.58
2023-01-08T01:48:29.385Z,3.25
2023-01-08T01:49:06.598Z,3.58
2023-01-08T01:49:40.559Z,3.20
2023-01-08T01:50:16.693Z,3.60
2023-01-08T01:50:51.493Z,3.80
2023-01-08T01:51:29.335Z,3.90
2023-01-08T01:52:06.464Z,3.20
2023-01-08T01:52:41.951Z,4.45
2023-01-08T01:53:18.770Z,4.38
2023-01-08T01:53:50.578Z,3.13
2023-01-08T01:54:23.632Z,3.65
2023-01-08T01:54:56.530Z,3.95
2023-01-08T01:55:29.605Z,3.72
2023-01-08T01:56:02.973Z,3.55
2023-01-08T01:56:35.904Z,4.22
2023-01-08T01:57:08.466Z,4.13
2023-01-08T01:57:44.501Z,3.05
2023-01-08T01:58:20.950Z,3.45
2023-01-08T01:58:52.740Z,3.88
2023-01-08T01:59:24.610Z,3.53
2023-01-08T01:59:58.459Z,3.40
2023-01-08T02:00:31.354Z,3.67
2023-01-08T02:01:05.592Z,3.15
2023-01-08T02:01:41.100Z,3.17
2023-01-08T02:02:13.210Z,3.47
2023-01-08T02:02:45.626Z,3.13
2023-01-08T02:03:21.721Z,3.95
2023-01-08T02:03:54.528Z,3.50
2023-01-08T02:04:26.435Z,4.18
2023-01-08T02:04:58.509Z,3.38
2023-01-08T02:05:39.441Z,3.40
2023-01-08T02:06:19.862Z,3.63
2023-01-08T02:07:00.165Z,3.95
2023-01-08T02:07:41.455Z,3.25
2023-01-08T02:08:22.438Z,3.20
2023-01-08T02:09:01.209Z,3.95
2023-01-08T02:09:43.807Z,3.75
2023-01-08T02:10:20.907Z,3.72
2023-01-08T02:10:59.582Z,2.95
2023-01-08T02:11:42.055Z,3.60
2023-01-08T02:12:21.191Z,3.78
2023-01-08T02:12:59.872Z,3.55
2023-01-08T02:13:38.215Z,4.00
2023-01-08T02:14:16.791Z,4.60
2023-01-08T02:15:02.012Z,3.35
2023-01-08T02:15:42.602Z,3.80
2023-01-08T02:16:20.339Z,3.88
2023-01-08T02:16:58.652Z,3.92
2023-01-08T02:17:40.294Z,4.15
2023-01-08T02:18:17.850Z,3.38
2023-01-08T02:18:56.792Z,3.75
2023-01-08T02:19:37.673Z,3.50
2023-01-08T02:20:13.736Z,3.60
2023-01-08T02:20:49.668Z,3.92
2023-01-08T02:21:33.560Z,3.78
2023-01-08T02:22:17.531Z,3.60
2023-01-08T02:23:03.232Z,3.15
2023-01-08T02:23:47.175Z,3.70
2023-01-08T02:24:30.502Z,3.35
2023-01-08T02:25:10.571Z,3.67
2023-01-08T02:26:06.833Z,4.03
2023-01-08T02:26:39.053Z,2.92
2023-01-08T02:27:12.890Z,3.30
2023-01-08T02:27:48.777Z,2.88
2023-01-08T02:28:21.812Z,3.20
2023-01-08T02:28:58.426Z,3.65
2023-01-08T02:29:33.330Z,3.70
2023-01-08T02:30:06.583Z,3.10
2023-01-08T02:30:38.806Z,3.35
2023-01-08T02:31:12.985Z,3.22
2023-01-08T02:31:46.202Z,3.33
2023-01-08T02:32:18.363Z,3.60
2023-01-08T02:33:02.594Z,3.58
2023-01-08T02:33:35.528Z,2.85
2023-01-08T02:34:11.294Z,2.95
2023-01-08T02:34:43.099Z,3.15
2023-01-08T02:35:16.008Z,2.80
2023-01-08T02:35:55.781Z,3.45
2023-01-08T02:36:40.934Z,3.13
2023-01-08T02:37:12.834Z,3.25
2023-01-08T02:37:45.101Z,3.00
2023-01-08T02:38:19.463Z,2.90
2023-01-08T02:39:03.228Z,3.00
2023-01-08T02:40:02.857Z,2.92
2023-01-08T02:40:42.100Z,2.85
2023-01-08T02:41:17.817Z,2.78
2023-01-08T02:41:59.616Z,3.10
2023-01-08T02:42:40.001Z,3.45
2023-01-08T02:43:17.922Z,3.20
2023-01-08T02:43:52.921Z,3.05
2023-01-08T02:44:35.027Z,2.45
2023-01-08T02:45:16.127Z,3.22
2023-01-08T02:46:01.119Z,2.67
2023-01-08T02:46:38.535Z,3.15
2023-01-08T02:47:15.684Z,2.90
2023-01-08T02:47:54.537Z,2.67
2023-01-08T02:48:33.630Z,3.40
2023-01-08T02:49:10.167Z,2.55
2023-01-08T02:49:45.043Z,2.83
2023-01-08T02:50:25.879Z,3.33
2023-01-08T02:51:03.854Z,2.65
2023-01-08T02:51:40.782Z,3.00
2023-01-08T02:52:16.266Z,2.53
2023-01-08T02:52:56.059Z,3.10
2023-01-08T02:53:30.847Z,3.17
2023-01-08T02:54:06.306Z,3.35
2023-01-08T02:54:40.825Z,2.90
2023-01-08T02:55:12.991Z,3.28
2023-01-08T02:55:49.531Z,3.58
2023-01-08T02:56:27.775Z,3.28
2023-01-08T02:57:04.485Z,3.20
2023-01-08T02:57:36.656Z,3.03
2023-01-08T02:58:10.275Z,3.00
2023-01-08T02:58:43.135Z,2.80
2023-01-08T02:59:16.653Z,2.97
2023-01-08T02:59:50.905Z,2.80
2023-01-08T03:00:23.736Z,3.25
2023-01-08T03:00:57.362Z,3.00
2023-01-08T03:01:29.999Z,2.53
2023-01-08T03:02:03.563Z,3.17
2023-01-08T03:02:39.571Z,3.28
2023-01-08T03:03:16.128Z,2.78
2023-01-08T03:03:52.280Z,2.58
2023-01-08T03:04:26.942Z,2.58
2023-01-08T03:05:05.288Z,2.75
2023-01-08T03:05:41.228Z,2.70
2023-01-08T03:06:17.238Z,3.25
2023-01-08T03:06:49.630Z,2.90
2023-01-08T03:07:22.648Z,2.85
2023-01-08T03:07:55.558Z,2.70
2023-01-08T03:08:28.596Z,2.70
2023-01-08T03:09:01.826Z,3.42
2023-01-08T03:09:34.361Z,3.20
2023-01-08T03:10:07.652Z,2.67
2023-01-08T03:10:43.846Z,2.30
2023-01-08T03:11:17.847Z,3.00
2023-01-08T03:11:56.664Z,3.10
2023-01-08T03:12:40.846Z,2.42
2023-01-08T03:13:17.013Z,3.05
2023-01-08T03:13:54.878Z,2.92
2023-01-08T03:14:32.201Z,2.47
2023-01-08T03:15:08.389Z,2.72
2023-01-08T03:15:46.751Z,2.42
2023-01-08T03:16:25.943Z,2.78
2023-01-08T03:17:01.338Z,1.70
2023-01-08T03:17:36.139Z,2.22
2023-01-08T03:18:12.306Z,2.10
2023-01-08T03:18:48.765Z,2.03
2023-01-08T03:19:23.835Z,2.42
2023-01-08T03:20:00.962Z,2.50
2023-01-08T03:20:35.758Z,2.47
2023-01-08T03:21:08.249Z,2.50
2023-01-08T03:21:43.938Z,2.15
2023-01-08T03:22:17.797Z,2.33
2023-01-08T03:22:52.826Z,2.55
2023-01-08T03:23:27.632Z,2.00
2023-01-08T03:24:01.231Z,2.50
2023-01-08T03:24:37.321Z,2.25
2023-01-08T03:25:11.397Z,2.22
2023-01-08T03:25:46.398Z,1.85
2023-01-08T03:26:21.747Z,2.35
2023-01-08T03:26:59.691Z,1.98
2023-01-08T03:27:34.288Z,2.25
2023-01-08T03:28:13.037Z,1.75
2023-01-08T03:28:47.868Z,2.00
2023-01-08T03:29:24.295Z,1.83
2023-01-08T03:29:59.366Z,1.80
2023-01-08T03:30:31.933Z,2.03
2023-01-08T03:31:05.984Z,1.95
2023-01-08T03:31:39.171Z,1.80
2023-01-08T03:32:13.859Z,2.10
2023-01-08T03:32:48.922Z,1.83
2023-01-08T03:33:22.950Z,2.33
2023-01-08T03:33:55.897Z,2.00
2023-01-08T03:34:32.999Z,1.92
2023-01-08T03:35:09.563Z,1.85
2023-01-08T03:35:43.641Z,2.28
2023-01-08T03:36:19.879Z,2.08
2023-01-08T03:36:54.052Z,1.77
2023-01-08T03:37:29.532Z,1.98
2023-01-08T03:38:09.573Z,2.13
2023-01-08T03:38:45.021Z,1.50
2023-01-08T03:39:20.930Z,1.75
2023-01-08T03:39:59.131Z,1.65
2023-01-08T03:40:36.834Z,1.75
2023-01-08T03:41:11.361Z,1.70
2023-01-08T03:41:44.277Z,1.67
2023-01-08T03:42:19.345Z,1.70
2023-01-08T03:42:51.230Z,1.77
2023-01-08T03:43:24.288Z,1.90
2023-01-08T03:43:56.444Z,1.70
2023-01-08T03:44:28.380Z,1.55
2023-01-08T03:45:00.590Z,1.63
2023-01-08T03:45:34.926Z,1.50
2023-01-08T03:46:11.918Z,1.75
2023-01-08T03:46:48.979Z,1.58
2023-01-08T03:47:24.719Z,1.92
2023-01-08T03:47:58.195Z,1.73
2023-01-08T03:48:32.349Z,1.75
2023-01-08T03:49:05.952Z,1.60
2023-01-08T03:49:40.006Z,1.80
2023-01-08T03:50:16.919Z,1.70
2023-01-08T03:50:49.787Z,2.05
2023-01-08T03:51:21.696Z,1.60
2023-01-08T03:51:53.571Z,1.45
2023-01-08T03:52:28.285Z,2.20
2023-01-08T03:53:00.955Z,1.48
2023-01-08T03:53:33.978Z,1.60
2023-01-08T03:54:05.842Z,1.40
2023-01-08T03:54:37.812Z,1.50
2023-01-08T03:55:11.189Z,1.63
2023-01-08T03:55:43.087Z,1.70
2023-01-08T03:56:16.117Z,2.00
2023-01-08T03:56:48.878Z,2.25
2023-01-08T03:57:22.331Z,2.88
2023-01-08T03:57:54.192Z,3.70
2023-01-08T03:58:27.037Z,7.05
2023-01-08T03:58:58.878Z,13.70
2023-01-08T03:59:30.731Z,7.55
2023-01-08T04:00:02.693Z,4.13
2023-01-08T04:00:35.532Z,3.35
2023-01-08T04:01:07.423Z,2.40
2023-01-08T04:01:39.723Z,2.10
2023-01-08T04:02:12.676Z,2.17
2023-01-08T04:02:44.918Z,1.83
2023-01-08T04:03:16.735Z,1.75
2023-01-08T04:03:49.493Z,1.27
2023-01-08T04:04:21.357Z,1.50
2023-01-08T04:04:53.229Z,1.65
2023-01-08T04:05:26.055Z,2.00
2023-01-08T04:05:59.773Z,1.75
2023-01-08T04:06:31.799Z,1.60
2023-01-08T04:07:03.905Z,1.85
2023-01-08T04:07:36.758Z,1.88
2023-01-08T04:08:08.609Z,2.00
2023-01-08T04:08:40.445Z,1.83
2023-01-08T04:09:12.287Z,1.58
2023-01-08T04:09:45.204Z,1.70
2023-01-08T04:10:17.179Z,1.60
2023-01-08T04:10:49.020Z,1.90
2023-01-08T04:11:22.029Z,1.60
2023-01-08T04:11:53.887Z,1.52
2023-01-08T04:12:27.054Z,1.85
2023-01-08T04:12:59.864Z,1.35
2023-01-08T04:13:31.752Z,1.70
2023-01-08T04:14:03.615Z,1.38
2023-01-08T04:14:36.402Z,2.08
2023-01-08T04:15:09.029Z,2.15
2023-01-08T04:15:41.847Z,1.52
2023-01-08T04:16:13.912Z,1.42
2023-01-08T04:16:45.975Z,1.90
2023-01-08T04:17:18.823Z,1.95
2023-01-08T04:17:50.631Z,1.63
2023-01-08T04:18:22.477Z,1.95
2023-01-08T04:18:55.412Z,1.63
2023-01-08T04:19:27.231Z,1.88
2023-01-08T04:19:59.097Z,1.48
2023-01-08T04:20:31.928Z,1.70
2023-01-08T04:21:03.979Z,1.80
2023-01-08T04:21:35.758Z,1.73
2023-01-08T04:22:10.867Z,1.65
2023-01-08T04:22:42.776Z,1.80
2023-01-08T04:23:14.782Z,1.60
2023-01-08T04:23:47.975Z,1.55
2023-01-08T04:24:20.084Z,1.73
2023-01-08T04:24:52.037Z,1.83
2023-01-08T04:25:24.815Z,1.67
2023-01-08T04:25:56.678Z,2.13
2023-01-08T04:26:28.531Z,1.67
2023-01-08T04:27:01.317Z,1.98
2023-01-08T04:27:34.540Z,1.42
2023-01-08T04:28:06.440Z,2.10
2023-01-08T04:28:39.328Z,1.77
2023-01-08T04:29:12.061Z,1.75
2023-01-08T04:29:44.156Z,1.38
2023-01-08T04:30:17.161Z,1.48
2023-01-08T04:30:49.012Z,1.17
2023-01-08T04:31:20.910Z,1.98
2023-01-08T04:31:53.861Z,1.60
2023-01-08T04:32:25.811Z,1.50
2023-01-08T04:32:57.739Z,1.40
2023-01-08T04:33:30.452Z,1.40
2023-01-08T04:34:02.562Z,1.80
2023-01-08T04:34:34.443Z,1.70
2023-01-08T04:35:07.889Z,1.48
2023-01-08T04:35:39.893Z,1.55
2023-01-08T04:36:12.717Z,1.70
2023-01-08T04:36:44.596Z,1.50
2023-01-08T04:37:16.454Z,1.40
2023-01-08T04:37:49.658Z,1.70
2023-01-08T04:38:21.485Z,1.85
2023-01-08T04:38:53.283Z,1.58
2023-01-08T04:39:26.035Z,1.90
2023-01-08T04:39:57.834Z,2.20
2023-01-08T04:40:29.726Z,1.33
2023-01-08T04:41:03.360Z,1.65
2023-01-08T04:41:35.241Z,1.48
2023-01-08T04:42:07.020Z,1.45
2023-01-08T04:42:41.245Z,1.90
2023-01-08T04:43:13.032Z,1.45
2023-01-08T04:43:44.878Z,1.50
2023-01-08T04:44:17.732Z,1.73
2023-01-08T04:44:49.564Z,1.52
2023-01-08T04:45:21.575Z,1.42
2023-01-08T04:45:58.171Z,1.27
2023-01-08T04:46:30.101Z,1.70
2023-01-08T04:47:01.927Z,1.77
2023-01-08T04:47:34.762Z,1.75
2023-01-08T04:48:07.113Z,2.15
2023-01-08T04:48:39.096Z,1.67
2023-01-08T04:49:12.208Z,1.95
2023-01-08T04:49:44.280Z,1.80
2023-01-08T04:50:16.229Z,1.73
2023-01-08T04:50:49.156Z,1.70
2023-01-08T04:51:21.484Z,1.27
2023-01-08T04:51:53.282Z,1.35
2023-01-08T04:52:26.168Z,1.83
2023-01-08T04:52:59.378Z,1.80
2023-01-08T04:53:34.885Z,1.60
2023-01-08T04:54:07.892Z,1.98
2023-01-08T04:54:39.762Z,1.85
2023-01-08T04:55:11.601Z,1.60
2023-01-08T04:55:44.417Z,1.45
2023-01-08T04:56:16.224Z,3.95
2023-01-08T04:56:51.217Z,14.23
2023-01-08T04:57:23.975Z,7.03
2023-01-08T04:57:57.223Z,3.80
2023-01-08T04:58:29.683Z,3.60
2023-01-08T04:59:02.503Z,3.13
2023-01-08T04:59:34.340Z,2.65
2023-01-08T05:00:08.040Z,2.38
2023-01-08T05:00:41.613Z,1.70
2023-01-08T05:01:18.203Z,1.85
2023-01-08T05:01:50.259Z,1.92
2023-01-08T05:02:23.357Z,1.60
2023-01-08T05:02:55.591Z,1.40
2023-01-08T05:03:27.608Z,1.13
2023-01-08T05:04:02.560Z,1.50
2023-01-08T05:04:34.368Z,1.65
2023-01-08T05:05:07.257Z,1.42
2023-01-08T05:05:40.171Z,1.80
2023-01-08T05:06:12.056Z,1.35
2023-01-08T05:06:43.882Z,1.50
2023-01-08T05:07:16.677Z,1.38
2023-01-08T05:07:48.488Z,1.92
2023-01-08T05:08:20.322Z,1.65
2023-01-08T05:08:53.211Z,1.30
2023-01-08T05:09:25.112Z,1.45
2023-01-08T05:09:56.981Z,1.48
2023-01-08T05:10:29.830Z,1.35
2023-01-08T05:11:03.082Z,1.23
2023-01-08T05:11:37.236Z,1.70
2023-01-08T05:12:10.001Z,1.73
2023-01-08T05:12:41.855Z,1.42
2023-01-08T05:13:14.980Z,1.35
2023-01-08T05:13:49.740Z,1.50
2023-01-08T05:14:21.623Z,1.60
2023-01-08T05:14:54.397Z,1.67
2023-01-08T05:15:26.406Z,1.58
2023-01-08T05:16:00.301Z,1.75
2023-01-08T05:16:32.200Z,1.10
2023-01-08T05:17:05.000Z,1.42
2023-01-08T05:17:36.812Z,1.40
2023-01-08T05:18:09.350Z,1.30
2023-01-08T05:18:42.120Z,1.40
2023-01-08T05:19:14.172Z,1.70
2023-01-08T05:19:46.046Z,1.33
2023-01-08T05:20:19.144Z,1.50
2023-01-08T05:20:50.987Z,1.48
2023-01-08T05:21:22.841Z,1.27
2023-01-08T05:21:55.622Z,1.40
2023-01-08T05:22:27.450Z,1.73
2023-01-08T05:22:59.337Z,1.27
2023-01-08T05:23:33.177Z,1.50
2023-01-08T05:24:05.457Z,1.30
2023-01-08T05:24:37.295Z,1.30
2023-01-08T05:25:10.582Z,2.00
2023-01-08T05:25:42.478Z,1.40
2023-01-08T05:26:15.175Z,1.45
2023-01-08T05:26:48.018Z,1.63
2023-01-08T05:27:20.778Z,1.83
2023-01-08T05:27:52.934Z,1.30
2023-01-08T05:28:27.745Z,1.40
2023-01-08T05:28:59.600Z,1.70
2023-01-08T05:29:31.382Z,1.40
2023-01-08T05:30:04.452Z,1.40
2023-01-08T05:30:36.793Z,1.38
2023-01-08T05:31:09.198Z,1.52
2023-01-08T05:31:41.987Z,1.40
2023-01-08T05:32:15.586Z,1.40
2023-01-08T05:32:47.409Z,1.40
2023-01-08T05:33:20.266Z,1.80
2023-01-08T05:33:52.093Z,1.33
2023-01-08T05:34:23.995Z,1.50
2023-01-08T05:34:56.843Z,1.50
2023-01-08T05:35:28.667Z,1.58
2023-01-08T05:36:00.486Z,1.50
2023-01-08T05:36:33.354Z,1.00
2023-01-08T05:37:05.165Z,1.50
2023-01-08T05:37:37.696Z,1.55
2023-01-08T05:38:10.517Z,1.70
2023-01-08T05:38:42.308Z,1.05
2023-01-08T05:39:14.225Z,1.30
2023-01-08T05:39:47.079Z,1.60
2023-01-08T05:40:18.978Z,1.80
2023-01-08T05:40:52.527Z,1.23
2023-01-08T05:41:25.266Z,1.30
2023-01-08T05:41:57.161Z,1.50
2023-01-08T05:42:28.999Z,1.40
2023-01-08T05:43:02.603Z,1.60
2023-01-08T05:43:36.413Z,1.70
2023-01-08T05:44:09.571Z,1.45
2023-01-08T05:44:42.394Z,1.70
2023-01-08T05:45:15.619Z,1.30
2023-01-08T05:45:47.482Z,1.30
2023-01-08T05:46:20.487Z,1.60
2023-01-08T05:46:53.297Z,1.55
2023-01-08T05:47:25.156Z,1.45
2023-01-08T05:47:57.910Z,1.30
2023-01-08T05:48:30.528Z,1.48
2023-01-08T05:49:02.395Z,1.67
2023-01-08T05:49:35.161Z,1.42
2023-01-08T05:50:07.511Z,1.45
2023-01-08T05:50:39.366Z,1.25
2023-01-08T05:51:12.126Z,2.05
2023-01-08T05:51:43.971Z,1.67
2023-01-08T05:52:15.840Z,1.52
2023-01-08T05:52:48.649Z,1.58
2023-01-08T05:53:20.500Z,1.73
2023-01-08T05:53:52.377Z,1.30
2023-01-08T05:54:25.227Z,1.80
2023-01-08T05:54:57.151Z,1.63
2023-01-08T05:55:28.934Z,1.55
2023-01-08T05:56:06.630Z,1.23
2023-01-08T05:56:39.682Z,1.70
2023-01-08T05:57:11.590Z,0.90
2023-01-08T05:57:44.399Z,1.50
2023-01-08T05:58:18.960Z,1.73
2023-01-08T05:58:53.918Z,1.35
2023-01-08T05:59:26.783Z,1.35
2023-01-08T05:59:58.640Z,1.50
2023-01-08T06:00:30.679Z,1.30
2023-01-08T06:01:04.824Z,1.77
2023-01-08T06:01:36.706Z,1.58
2023-01-08T06:02:10.050Z,1.67
2023-01-08T06:02:46.477Z,1.20
2023-01-08T06:03:20.606Z,1.20
2023-01-08T06:03:56.134Z,1.25
2023-01-08T06:04:28.071Z,1.27
2023-01-08T06:05:00.006Z,1.20
2023-01-08T06:05:33.342Z,1.40
2023-01-08T06:06:07.189Z,1.20
2023-01-08T06:06:39.066Z,1.35
2023-01-08T06:07:10.918Z,1.30
2023-01-08T06:07:44.007Z,1.20
2023-01-08T06:08:16.008Z,1.50
2023-01-08T06:08:48.831Z,1.15
2023-01-08T06:09:20.658Z,1.50
2023-01-08T06:09:52.484Z,1.55
2023-01-08T06:10:25.503Z,1.60
2023-01-08T06:10:59.871Z,1.60
2023-01-08T06:11:32.710Z,1.60
2023-01-08T06:12:04.843Z,1.75
2023-01-08T06:12:36.978Z,1.50
2023-01-08T06:13:10.720Z,1.30
2023-01-08T06:13:43.827Z,1.33
2023-01-08T06:14:17.132Z,1.63
2023-01-08T06:14:49.978Z,1.35
2023-01-08T06:15:21.974Z,1.35
2023-01-08T06:15:53.761Z,1.15
2023-01-08T06:16:26.615Z,1.42
2023-01-08T06:16:58.468Z,1.40
2023-01-08T06:17:30.262Z,1.50
2023-01-08T06:18:03.723Z,2.10
2023-01-08T06:18:35.925Z,1.77
2023-01-08T06:19:10.340Z,1.85
2023-01-08T06:19:43.172Z,1.88
2023-01-08T06:20:15.162Z,1.98
2023-01-08T06:20:47.410Z,2.60
2023-01-08T06:21:21.253Z,2.08
2023-01-08T06:21:53.614Z,3.03
2023-01-08T06:22:25.451Z,1.55
2023-01-08T06:22:58.265Z,2.42
2023-01-08T06:23:30.314Z,2.33
2023-01-08T06:24:02.140Z,1.85
2023-01-08T06:24:34.945Z,2.35
2023-01-08T06:25:07.360Z,1.65
2023-01-08T06:25:39.186Z,2.67
2023-01-08T06:26:12.148Z,2.28
2023-01-08T06:26:43.966Z,2.40
2023-01-08T06:27:15.805Z,2.00
2023-01-08T06:27:51.983Z,1.73
2023-01-08T06:28:24.663Z,2.00
2023-01-08T06:28:56.505Z,1.85
2023-01-08T06:29:30.625Z,2.05
2023-01-08T06:30:02.487Z,1.95
2023-01-08T06:30:34.458Z,1.75
2023-01-08T06:31:07.265Z,1.70
2023-01-08T06:31:39.314Z,1.85
2023-01-08T06:32:11.285Z,2.15
2023-01-08T06:32:44.047Z,1.90
2023-01-08T06:33:16.498Z,1.65
2023-01-08T06:33:48.454Z,2.20
2023-01-08T06:34:21.345Z,1.90
2023-01-08T06:34:53.239Z,1.88
2023-01-08T06:35:26.480Z,1.85
2023-01-08T06:36:01.169Z,1.95
2023-01-08T06:36:32.955Z,1.73
2023-01-08T06:37:05.711Z,2.10
2023-01-08T06:37:37.499Z,1.50
2023-01-08T06:38:09.338Z,1.40
2023-01-08T06:38:42.125Z,1.60
2023-01-08T06:39:13.959Z,1.80
2023-01-08T06:39:45.741Z,1.90
2023-01-08T06:40:18.953Z,2.15
2023-01-08T06:40:50.828Z,1.55
2023-01-08T06:41:22.788Z,2.10
2023-01-08T06:41:55.570Z,1.60
2023-01-08T06:42:27.356Z,1.80
2023-01-08T06:43:02.717Z,1.95
2023-01-08T06:43:36.230Z,1.85
2023-01-08T06:44:08.647Z,1.55
2023-01-08T06:44:42.778Z,1.60
2023-01-08T06:45:14.627Z,1.80
2023-01-08T06:45:54.738Z,2.65
2023-01-08T06:46:26.796Z,1.83
2023-01-08T06:46:58.664Z,1.27
2023-01-08T06:47:31.463Z,1.77
2023-01-08T06:48:04.738Z,2.05
2023-01-08T06:48:37.256Z,1.25
2023-01-08T06:49:10.912Z,2.17
2023-01-08T06:49:42.704Z,1.85
2023-01-08T06:50:15.512Z,1.75
2023-01-08T06:50:47.344Z,1.90
2023-01-08T06:51:20.297Z,1.45
2023-01-08T06:51:52.119Z,1.73
2023-01-08T06:52:23.931Z,2.05
2023-01-08T06:52:57.762Z,1.50
2023-01-08T06:53:30.109Z,2.05
2023-01-08T06:54:02.362Z,2.28
2023-01-08T06:54:35.179Z,1.77
2023-01-08T06:55:07.731Z,1.83
2023-01-08T06:55:40.570Z,1.63
2023-01-08T06:56:13.454Z,2.00
2023-01-08T06:56:53.999Z,2.05
2023-01-08T06:57:26.220Z,1.90
2023-01-08T06:58:00.279Z,1.88
2023-01-08T06:58:32.125Z,2.22
2023-01-08T06:59:04.135Z,2.10
2023-01-08T06:59:36.919Z,2.40
2023-01-08T07:00:11.334Z,2.00
2023-01-08T07:00:43.682Z,1.92
2023-01-08T07:01:17.790Z,2.03
2023-01-08T07:01:50.756Z,1.80
2023-01-08T07:02:25.414Z,2.22
2023-01-08T07:02:59.224Z,2.03
2023-01-08T07:03:31.179Z,2.10
2023-01-08T07:04:03.063Z,1.90
2023-01-08T07:04:35.807Z,2.03
2023-01-08T07:05:08.399Z,1.90
2023-01-08T07:05:40.290Z,1.90
2023-01-08T07:06:15.880Z,2.10
2023-01-08T07:06:48.526Z,2.28
2023-01-08T07:07:21.306Z,2.30
2023-01-08T07:07:53.568Z,2.33
2023-01-08T07:08:26.355Z,2.20
2023-01-08T07:08:58.193Z,1.80
2023-01-08T07:09:30.033Z,2.40
2023-01-08T07:10:02.877Z,2.38
2023-01-08T07:10:34.762Z,2.03
2023-01-08T07:11:06.623Z,2.40
2023-01-08T07:11:39.477Z,3.88
2023-01-08T07:12:13.380Z,3.60
2023-01-08T07:12:45.163Z,3.17
2023-01-08T07:13:18.060Z,3.65
2023-01-08T07:13:49.977Z,3.45
2023-01-08T07:14:22.006Z,3.53
2023-01-08T07:14:54.815Z,3.30
2023-01-08T07:15:28.074Z,3.17
2023-01-08T07:16:07.092Z,3.22
2023-01-08T07:16:39.010Z,2.80
2023-01-08T07:17:11.852Z,1.90
2023-01-08T07:17:43.663Z,1.92
2023-01-08T07:18:15.632Z,2.50
2023-01-08T07:18:47.519Z,2.28
2023-01-08T07:19:20.336Z,2.47
2023-01-08T07:19:52.168Z,2.38
2023-01-08T07:20:24.089Z,2.38
2023-01-08T07:20:55.932Z,2.70
2023-01-08T07:21:28.769Z,1.60
2023-01-08T07:22:00.703Z,2.00
2023-01-08T07:22:32.666Z,1.95
2023-01-08T07:23:06.733Z,1.98
2023-01-08T07:23:38.618Z,2.20
2023-01-08T07:24:10.619Z,1.67
2023-01-08T07:24:43.425Z,1.98
2023-01-08T07:25:15.406Z,2.10
2023-01-08T07:25:47.457Z,2.05
2023-01-08T07:26:20.340Z,2.33
2023-01-08T07:26:52.355Z,2.90
2023-01-08T07:27:24.270Z,3.92
2023-01-08T07:27:57.316Z,25.33
2023-01-08T07:28:29.747Z,18.05